Time;durP1;ratioP1;P1;durP2;ratioP2;P2;SDS_P1;SDS_P2;PMS_P1;PMS_P2;Temp;Humidity;BMP_temperature;BMP_pressure;BME280_temperature;BME280_humidity;BME280_pressure;Samples;Min_cycle;Max_cycle;Signal;HPM_P1;HPM_P2
2022/02/06 00:00:34;;;;;;;8.77;4.60;;;;;;;;;;5089430;28;20039;-64
2022/02/06 00:03:00;;;;;;;7.90;3.83;;;;;;;;;;5090119;28;20035;-64
2022/02/06 00:05:26;;;;;;;10.73;4.47;;;;;;;;;;5092913;28;20055;-65
2022/02/06 00:07:52;;;;;;;7.63;3.97;;;;;;;;;;5090610;28;20036;-65
2022/02/06 00:10:18;;;;;;;6.30;2.75;;;;;;;;;;5088819;28;20445;-65
2022/02/06 00:12:45;;;;;;;7.32;3.22;;;;;;;;;;5088808;28;20040;-65
2022/02/06 00:15:11;;;;;;;6.75;3.20;;;;;;;;;;5089666;28;20028;-65
2022/02/06 00:17:37;;;;;;;3.88;2.20;;;;;;;;;;5091709;28;20032;-64
2022/02/06 00:20:05;;;;;;;5.88;2.58;;;;;;;;;;5091156;28;20115;-65
2022/02/06 00:22:48;;;;;;;4.20;2.50;;;;;;;;;;5089193;28;20028;-65
2022/02/06 00:25:22;;;;;;;6.88;2.90;;;;;;;;;;5089258;28;20624;-65
2022/02/06 00:30:59;;;;;;;4.90;2.15;;;;;;;;;;5089302;28;20083;-65
2022/02/06 00:39:04;;;;;;;4.20;2.10;;;;;;;;;;5090397;28;20526;-65
2022/02/06 00:41:32;;;;;;;4.47;2.27;;;;;;;;;;5088983;28;20039;-65
2022/02/06 00:44:02;;;;;;;4.38;2.13;;;;;;;;;;5090189;28;20027;-65
2022/02/06 00:46:29;;;;;;;5.82;2.92;;;;;;;;;;5090892;28;20122;-65
2022/02/06 00:49:00;;;;;;;5.88;2.60;;;;;;;;;;5089163;28;20035;-65
2022/02/06 00:51:49;;;;;;;5.00;2.22;;;;;;;;;;5088746;28;20020;-65
2022/02/06 00:54:15;;;;;;;3.95;1.90;;;;;;;;;;5088871;28;20452;-65
2022/02/06 00:56:41;;;;;;;4.20;2.15;;;;;;;;;;5090579;28;20059;-65
2022/02/06 00:59:07;;;;;;;4.53;2.20;;;;;;;;;;5090632;28;20379;-66
2022/02/06 01:01:33;;;;;;;5.60;2.40;;;;;;;;;;5090265;28;20252;-65
2022/02/06 01:03:59;;;;;;;4.15;2.33;;;;;;;;;;5088784;28;20028;-65
2022/02/06 01:06:25;;;;;;;5.68;2.40;;;;;;;;;;5088570;28;20028;-65
2022/02/06 01:08:52;;;;;;;6.90;2.17;;;;;;;;;;5088709;28;20047;-65
2022/02/06 01:11:18;;;;;;;4.95;2.42;;;;;;;;;;5091651;28;20023;-65
2022/02/06 01:16:19;;;;;;;4.05;2.17;;;;;;;;;;5089902;28;20051;-65
2022/02/06 01:18:56;;;;;;;6.95;2.38;;;;;;;;;;5090037;28;20330;-65
2022/02/06 01:24:10;;;;;;;4.80;2.03;;;;;;;;;;5073657;28;20063;-65
2022/02/06 01:26:44;;;;;;;5.63;2.22;;;;;;;;;;5090617;28;20042;-65
2022/02/06 01:29:40;;;;;;;5.00;2.33;;;;;;;;;;5090863;28;20016;-65
2022/02/06 01:34:31;;;;;;;3.88;1.85;;;;;;;;;;5088085;28;20028;-65
2022/02/06 01:37:46;;;;;;;3.95;1.83;;;;;;;;;;5087616;28;20487;-65
2022/02/06 01:39:58;;;;;;;5.53;1.98;;;;;;;;;;5079573;28;20115;-65
2022/02/06 01:42:42;;;;;;;5.95;2.40;;;;;;;;;;5088134;28;20467;-65
2022/02/06 01:45:25;;;;;;;6.35;2.00;;;;;;;;;;5073794;28;20029;-65
2022/02/06 02:04:13;;;;;;;3.03;1.42;;;;;;;;;;5087316;28;20032;-66
2022/02/06 02:22:51;;;;;;;2.70;1.58;;;;;;;;;;5087371;28;20446;-65
2022/02/06 02:31:07;;;;;;;3.75;1.42;;;;;;;;;;5087613;28;20055;-65
2022/02/06 02:49:36;;;;;;;3.42;1.60;;;;;;;;;;5086488;28;20028;-66
2022/02/06 02:52:08;;;;;;;5.25;2.10;;;;;;;;;;5086936;28;20525;-65
2022/02/06 02:54:36;;;;;;;3.53;1.65;;;;;;;;;;5087152;28;20020;-66
2022/02/06 02:57:29;;;;;;;3.45;1.52;;;;;;;;;;5086961;28;20028;-66
2022/02/06 03:00:18;;;;;;;2.35;1.55;;;;;;;;;;5070691;28;20032;-66
2022/02/06 03:02:37;;;;;;;4.47;1.83;;;;;;;;;;5087014;28;20029;-66
2022/02/06 03:05:04;;;;;;;4.00;1.95;;;;;;;;;;5088601;28;20048;-64
2022/02/06 03:07:31;;;;;;;4.00;1.90;;;;;;;;;;5086500;28;20028;-64
2022/02/06 03:09:57;;;;;;;4.15;1.85;;;;;;;;;;5086921;28;20032;-65
2022/02/06 03:12:26;;;;;;;3.22;1.23;;;;;;;;;;5086914;28;20024;-65
2022/02/06 03:15:01;;;;;;;4.13;1.83;;;;;;;;;;5070390;28;20040;-65
2022/02/06 03:17:44;;;;;;;4.03;1.80;;;;;;;;;;5086464;28;20028;-64
2022/02/06 03:20:18;;;;;;;2.92;1.55;;;;;;;;;;5089226;28;20523;-65
2022/02/06 03:22:50;;;;;;;2.90;1.50;;;;;;;;;;5086856;28;20441;-64
2022/02/06 03:25:20;;;;;;;4.38;1.60;;;;;;;;;;5086369;28;20034;-65
2022/02/06 03:27:46;;;;;;;1.77;1.20;;;;;;;;;;5085233;28;20834;-66
2022/02/06 03:30:13;;;;;;;4.43;1.73;;;;;;;;;;5086975;28;20025;-65
2022/02/06 03:32:38;;;;;;;3.22;1.50;;;;;;;;;;5088895;28;20020;-65
2022/02/06 03:35:05;;;;;;;3.45;1.50;;;;;;;;;;5087808;28;20101;-65
2022/02/06 03:37:31;;;;;;;2.30;1.33;;;;;;;;;;5086408;28;20032;-64
2022/02/06 03:40:00;;;;;;;3.75;1.70;;;;;;;;;;5086257;28;20450;-64
2022/02/06 03:42:33;;;;;;;1.63;1.20;;;;;;;;;;5088211;28;20020;-64
2022/02/06 03:45:04;;;;;;;5.07;1.60;;;;;;;;;;5072011;28;20021;-64
2022/02/06 03:47:57;;;;;;;2.15;1.23;;;;;;;;;;5092746;28;20483;-64
2022/02/06 03:50:18;;;;;;;2.13;1.30;;;;;;;;;;5092615;28;20032;-64
2022/02/06 03:52:50;;;;;;;2.47;1.38;;;;;;;;;;5089745;28;20036;-65
2022/02/06 03:55:20;;;;;;;2.90;1.55;;;;;;;;;;5090219;28;20059;-64
2022/02/06 03:57:50;;;;;;;3.60;1.50;;;;;;;;;;5090150;28;20055;-64
2022/02/06 04:00:16;;;;;;;2.78;1.33;;;;;;;;;;5090035;28;20081;-64
2022/02/06 04:02:43;;;;;;;4.63;1.50;;;;;;;;;;5091313;28;20393;-65
2022/02/06 04:05:09;;;;;;;2.45;1.30;;;;;;;;;;5091925;28;20395;-64
2022/02/06 04:07:35;;;;;;;1.80;1.00;;;;;;;;;;5089793;28;20035;-64
2022/02/06 04:10:01;;;;;;;1.45;0.80;;;;;;;;;;5089931;28;20047;-65
2022/02/06 04:12:29;;;;;;;3.58;1.40;;;;;;;;;;5089538;28;20016;-64
2022/02/06 04:14:58;;;;;;;1.92;1.10;;;;;;;;;;5089558;28;20016;-65
2022/02/06 04:17:29;;;;;;;2.13;1.10;;;;;;;;;;5092819;28;20035;-64
2022/02/06 04:19:55;;;;;;;1.48;0.93;;;;;;;;;;5090554;28;20407;-65
2022/02/06 04:22:22;;;;;;;2.42;1.00;;;;;;;;;;5089586;28;20028;-65
2022/02/06 04:24:49;;;;;;;2.58;1.20;;;;;;;;;;5089210;28;20546;-65
2022/02/06 04:27:15;;;;;;;1.85;1.10;;;;;;;;;;5089267;28;20077;-65
2022/02/06 04:29:41;;;;;;;2.42;1.20;;;;;;;;;;5090558;28;20394;-66
2022/02/06 04:32:08;;;;;;;1.85;0.95;;;;;;;;;;5093099;28;20028;-65
2022/02/06 04:34:34;;;;;;;2.17;1.05;;;;;;;;;;5089312;28;20078;-65
2022/02/06 04:42:44;;;;;;;2.25;0.90;;;;;;;;;;5089010;28;20033;-65
2022/02/06 05:14:59;;;;;;;1.98;0.85;;;;;;;;;;5090668;28;20472;-64
2022/02/06 05:32:58;;;;;;;3.08;1.33;;;;;;;;;;5055503;28;20503;-65
2022/02/06 05:35:08;;;;;;;2.72;1.00;;;;;;;;;;5090081;28;20111;-65
2022/02/06 05:37:34;;;;;;;2.60;1.10;;;;;;;;;;5089845;28;20036;-64
2022/02/06 05:40:00;;;;;;;2.80;0.85;;;;;;;;;;5089545;28;20024;-64
2022/02/06 05:42:26;;;;;;;3.22;1.10;;;;;;;;;;5087053;28;20047;-65
2022/02/06 05:44:55;;;;;;;2.45;1.00;;;;;;;;;;5084313;28;20020;-64
2022/02/06 05:47:22;;;;;;;1.50;1.00;;;;;;;;;;5090370;28;20031;-64
2022/02/06 05:49:47;;;;;;;2.92;0.90;;;;;;;;;;5089354;28;20334;-64
2022/02/06 05:52:14;;;;;;;1.20;0.63;;;;;;;;;;5087218;28;20108;-64
2022/02/06 05:54:40;;;;;;;1.60;1.02;;;;;;;;;;5086999;28;20419;-64
2022/02/06 05:57:06;;;;;;;3.15;1.00;;;;;;;;;;5087348;28;20036;-64
2022/02/06 05:59:32;;;;;;;4.97;1.80;;;;;;;;;;5090198;28;20024;-64
2022/02/06 06:01:58;;;;;;;2.72;1.30;;;;;;;;;;5067936;28;20431;-64
2022/02/06 06:04:24;;;;;;;2.03;1.20;;;;;;;;;;5088491;28;20038;-64
2022/02/06 06:06:50;;;;;;;2.80;1.13;;;;;;;;;;5088530;28;20023;-65
2022/02/06 06:09:16;;;;;;;2.53;1.00;;;;;;;;;;5088052;28;20584;-65
2022/02/06 06:11:42;;;;;;;2.25;1.17;;;;;;;;;;5088582;28;20032;-64
2022/02/06 06:14:08;;;;;;;2.28;1.02;;;;;;;;;;5088547;28;20040;-65
2022/02/06 06:16:35;;;;;;;1.90;1.10;;;;;;;;;;5088298;28;20132;-65
2022/02/06 06:19:02;;;;;;;2.53;1.00;;;;;;;;;;5088464;28;20028;-66
2022/02/06 06:21:34;;;;;;;1.30;0.80;;;;;;;;;;5089231;28;20510;-67
2022/02/06 06:24:00;;;;;;;3.30;1.13;;;;;;;;;;5083926;28;20059;-66
2022/02/06 06:26:27;;;;;;;2.90;1.27;;;;;;;;;;5096112;28;20034;-66
2022/02/06 06:28:54;;;;;;;2.40;1.25;;;;;;;;;;5086796;28;20454;-66
2022/02/06 06:31:20;;;;;;;2.63;1.35;;;;;;;;;;5088105;28;20024;-65
2022/02/06 06:33:45;;;;;;;3.28;1.40;;;;;;;;;;5085103;28;20020;-66
2022/02/06 06:36:11;;;;;;;2.30;1.05;;;;;;;;;;5087279;28;20132;-66
2022/02/06 06:38:38;;;;;;;4.10;1.50;;;;;;;;;;5090941;28;20028;-66
2022/02/06 06:41:04;;;;;;;2.17;1.00;;;;;;;;;;5090428;28;20032;-66
2022/02/06 06:43:31;;;;;;;3.50;1.45;;;;;;;;;;5087401;28;20729;-66
2022/02/06 06:45:57;;;;;;;2.28;1.30;;;;;;;;;;5075489;28;20479;-65
2022/02/06 06:48:23;;;;;;;3.67;1.30;;;;;;;;;;5085677;28;20506;-65
2022/02/06 06:50:49;;;;;;;3.65;1.40;;;;;;;;;;5086681;28;20060;-65
2022/02/06 06:53:15;;;;;;;2.08;1.15;;;;;;;;;;5089506;28;20036;-65
2022/02/06 06:55:44;;;;;;;2.50;1.13;;;;;;;;;;5083910;28;20040;-65
2022/02/06 06:58:25;;;;;;;1.77;1.10;;;;;;;;;;5087936;28;20016;-64
2022/02/06 07:03:21;;;;;;;2.28;1.17;;;;;;;;;;5087210;28;20024;-65
2022/02/06 07:05:46;;;;;;;3.55;1.40;;;;;;;;;;5086319;28;20047;-65
2022/02/06 07:08:15;;;;;;;6.95;2.42;;;;;;;;;;5083626;28;20031;-65
2022/02/06 07:10:41;;;;;;;4.32;2.08;;;;;;;;;;5087667;28;20032;-64
2022/02/06 07:13:07;;;;;;;3.70;1.80;;;;;;;;;;5082560;28;20075;-64
2022/02/06 07:15:33;;;;;;;3.42;1.40;;;;;;;;;;5083200;28;20491;-64
2022/02/06 07:17:59;;;;;;;1.25;0.70;;;;;;;;;;5091202;28;20115;-64
2022/02/06 07:20:25;;;;;;;1.77;0.85;;;;;;;;;;5089955;28;20099;-64
2022/02/06 07:22:51;;;;;;;2.60;1.60;;;;;;;;;;5090287;28;20051;-64
2022/02/06 07:25:17;;;;;;;2.58;1.20;;;;;;;;;;5088420;28;20626;-64
2022/02/06 07:27:48;;;;;;;2.70;1.42;;;;;;;;;;5084378;28;20064;-64
2022/02/06 07:30:15;;;;;;;2.88;1.25;;;;;;;;;;5090075;28;20040;-65
2022/02/06 07:32:41;;;;;;;2.55;1.20;;;;;;;;;;5091653;28;20021;-65
2022/02/06 07:35:08;;;;;;;2.70;1.20;;;;;;;;;;5090856;28;20398;-65
2022/02/06 07:37:35;;;;;;;3.40;0.95;;;;;;;;;;5090152;28;20494;-65
2022/02/06 07:40:01;;;;;;;1.17;0.82;;;;;;;;;;5089034;28;20032;-65
2022/02/06 07:42:27;;;;;;;4.43;2.20;;;;;;;;;;5089834;28;20582;-65
2022/02/06 07:44:53;;;;;;;3.15;1.55;;;;;;;;;;5090893;28;20111;-65
2022/02/06 07:47:22;;;;;;;3.30;1.50;;;;;;;;;;5093645;28;20027;-65
2022/02/06 07:49:49;;;;;;;;;;;;;;;;;;5089579;28;20114;-64
2022/02/06 07:52:16;;;;;;;2.80;1.60;;;;;;;;;;5090138;28;19915;-64
2022/02/06 07:54:42;;;;;;;4.32;1.70;;;;;;;;;;5089086;28;20024;-64
2022/02/06 07:57:08;;;;;;;2.10;1.30;;;;;;;;;;5088921;28;20396;-64
2022/02/06 07:59:35;;;;;;;1.42;1.05;;;;;;;;;;5091628;28;20024;-64
2022/02/06 08:02:01;;;;;;;3.20;1.55;;;;;;;;;;5089912;28;20077;-67
2022/02/06 08:04:28;;;;;;;2.85;1.40;;;;;;;;;;5088968;28;20035;-67
2022/02/06 08:06:54;;;;;;;2.70;1.10;;;;;;;;;;5089343;28;20035;-67
2022/02/06 08:09:32;;;;;;;2.95;1.30;;;;;;;;;;5089515;28;20024;-66
2022/02/06 08:11:59;;;;;;;3.13;1.40;;;;;;;;;;5074383;28;20194;-66
2022/02/06 08:17:09;;;;;;;3.40;1.30;;;;;;;;;;5091414;28;20055;-67
2022/02/06 08:19:35;;;;;;;2.33;1.17;;;;;;;;;;5089011;28;20024;-68
2022/02/06 08:22:01;;;;;;;2.92;1.17;;;;;;;;;;5089482;28;20112;-68
2022/02/06 08:24:27;;;;;;;2.13;1.20;;;;;;;;;;5089293;28;20047;-68
2022/02/06 08:26:53;;;;;;;3.55;1.42;;;;;;;;;;5089496;28;20078;-68
2022/02/06 08:29:19;;;;;;;1.70;1.10;;;;;;;;;;5092695;28;20028;-68
2022/02/06 08:31:45;;;;;;;4.57;1.33;;;;;;;;;;5088189;28;20098;-68
2022/02/06 08:34:11;;;;;;;2.90;1.75;;;;;;;;;;5088812;28;20043;-69
2022/02/06 08:36:37;;;;;;;3.08;1.38;;;;;;;;;;5088879;28;20399;-68
2022/02/06 08:39:03;;;;;;;2.92;1.70;;;;;;;;;;5087392;28;20032;-69
2022/02/06 08:41:29;;;;;;;2.22;1.45;;;;;;;;;;5090252;28;20024;-69
2022/02/06 08:43:55;;;;;;;1.75;1.30;;;;;;;;;;5088629;28;20077;-69
2022/02/06 08:46:21;;;;;;;3.28;1.58;;;;;;;;;;5089102;28;20035;-68
2022/02/06 08:48:47;;;;;;;2.08;1.30;;;;;;;;;;5088984;28;20024;-69
2022/02/06 08:51:13;;;;;;;3.35;1.60;;;;;;;;;;5072790;28;20025;-68
2022/02/06 08:53:41;;;;;;;2.83;1.60;;;;;;;;;;5090853;28;20126;-68
2022/02/06 08:56:07;;;;;;;5.05;2.30;;;;;;;;;;5090311;28;20331;-67
2022/02/06 08:58:34;;;;;;;7.57;3.00;;;;;;;;;;5088101;28;20035;-69
2022/02/06 09:01:01;;;;;;;6.78;3.08;;;;;;;;;;5088848;28;20044;-68
2022/02/06 09:03:27;;;;;;;5.60;2.60;;;;;;;;;;5089072;28;20012;-68
2022/02/06 09:05:53;;;;;;;4.72;2.50;;;;;;;;;;5072869;28;20016;-67
2022/02/06 09:08:19;;;;;;;3.95;1.92;;;;;;;;;;5091556;28;20024;-68
2022/02/06 09:10:45;;;;;;;4.05;1.98;;;;;;;;;;5088033;28;20436;-68
2022/02/06 09:13:11;;;;;;;2.10;1.30;;;;;;;;;;5088447;28;20044;-68
2022/02/06 09:15:37;;;;;;;2.10;1.42;;;;;;;;;;5088487;28;20570;-67
2022/02/06 09:18:03;;;;;;;3.80;1.55;;;;;;;;;;5088343;28;20113;-68
2022/02/06 09:20:32;;;;;;;1.60;0.90;;;;;;;;;;5091292;28;20043;-68
2022/02/06 09:22:58;;;;;;;2.42;1.30;;;;;;;;;;5090530;28;20035;-69
2022/02/06 09:25:24;;;;;;;1.88;1.00;;;;;;;;;;5088154;28;20024;-68
2022/02/06 09:27:50;;;;;;;1.58;0.85;;;;;;;;;;5087844;28;20092;-67
2022/02/06 09:30:17;;;;;;;1.73;0.82;;;;;;;;;;5088439;28;20039;-68
2022/02/06 09:35:11;;;;;;;1.17;0.70;;;;;;;;;;5090057;28;20027;-68
2022/02/06 09:37:37;;;;;;;1.75;0.80;;;;;;;;;;5087738;28;20372;-68
2022/02/06 09:40:09;;;;;;;2.40;1.10;;;;;;;;;;5087126;28;20387;-67
2022/02/06 09:42:35;;;;;;;1.63;0.95;;;;;;;;;;5088733;28;20390;-68
2022/02/06 09:45:03;;;;;;;1.75;0.80;;;;;;;;;;5088120;28;20099;-68
2022/02/06 09:47:29;;;;;;;1.92;0.80;;;;;;;;;;5090912;28;20075;-68
2022/02/06 09:49:56;;;;;;;1.80;0.95;;;;;;;;;;5088802;28;20016;-68
2022/02/06 09:52:26;;;;;;;3.08;1.00;;;;;;;;;;5087481;28;20089;-68
2022/02/06 09:54:55;;;;;;;1.63;0.90;;;;;;;;;;5087276;28;20016;-67
2022/02/06 10:00:12;;;;;;;1.58;0.60;;;;;;;;;;5063714;28;20152;-68
2022/02/06 10:02:39;;;;;;;1.33;0.70;;;;;;;;;;5089911;28;20030;-68
2022/02/06 10:05:07;;;;;;;0.90;0.60;;;;;;;;;;5088352;28;20099;-67
2022/02/06 10:07:46;;;;;;;0.90;0.52;;;;;;;;;;5087506;28;20047;-67
2022/02/06 10:10:13;;;;;;;0.80;0.60;;;;;;;;;;5087627;28;20056;-68
2022/02/06 10:12:43;;;;;;;0.88;0.52;;;;;;;;;;5087367;28;20030;-67
2022/02/06 10:15:14;;;;;;;2.17;0.60;;;;;;;;;;5086920;28;20191;-67
2022/02/06 10:17:40;;;;;;;1.25;0.68;;;;;;;;;;5089477;28;20032;-67
2022/02/06 10:20:16;;;;;;;1.40;0.75;;;;;;;;;;5088847;28;20020;-67
2022/02/06 10:22:52;;;;;;;0.30;0.30;;;;;;;;;;5088200;28;20498;-68
2022/02/06 10:25:19;;;;;;;0.88;0.40;;;;;;;;;;5087556;28;20107;-67
2022/02/06 10:27:52;;;;;;;0.80;0.50;;;;;;;;;;5087323;28;20104;-68
2022/02/06 10:30:29;;;;;;;1.23;0.52;;;;;;;;;;5087317;28;20019;-67
2022/02/06 10:32:56;;;;;;;0.73;0.40;;;;;;;;;;5071013;28;20055;-67
2022/02/06 10:35:22;;;;;;;1.40;0.40;;;;;;;;;;5090493;28;20036;-67
2022/02/06 10:37:48;;;;;;;0.65;0.32;;;;;;;;;;5086803;28;20036;-69
2022/02/06 10:40:16;;;;;;;1.08;0.63;;;;;;;;;;5086992;28;20024;-69
2022/02/06 10:42:43;;;;;;;0.98;0.45;;;;;;;;;;5087253;28;20383;-67
2022/02/06 10:45:16;;;;;;;0.93;0.63;;;;;;;;;;5086993;28;20047;-67
2022/02/06 10:47:43;;;;;;;0.68;0.40;;;;;;;;;;5088786;28;20028;-67
2022/02/06 10:50:09;;;;;;;3.53;0.70;;;;;;;;;;5088529;28;20440;-67
2022/02/06 10:52:35;;;;;;;0.85;0.60;;;;;;;;;;5086564;28;20032;-67
2022/02/06 10:55:01;;;;;;;1.25;0.52;;;;;;;;;;5083121;28;20035;-67
2022/02/06 10:57:28;;;;;;;0.38;0.30;;;;;;;;;;5091245;28;20063;-67
2022/02/06 10:59:54;;;;;;;0.40;0.35;;;;;;;;;;5092173;28;20026;-68
2022/02/06 11:02:23;;;;;;;0.68;0.40;;;;;;;;;;5090053;28;20433;-68
2022/02/06 11:04:58;;;;;;;0.38;0.30;;;;;;;;;;5091116;28;20035;-67
2022/02/06 11:07:24;;;;;;;0.65;0.50;;;;;;;;;;5091034;28;20599;-67
2022/02/06 11:09:50;;;;;;;2.90;0.60;;;;;;;;;;5091279;28;20055;-67
2022/02/06 11:12:23;;;;;;;0.60;0.50;;;;;;;;;;5090710;28;20411;-68
2022/02/06 11:14:52;;;;;;;0.93;0.30;;;;;;;;;;5091086;28;20116;-68
2022/02/06 11:17:23;;;;;;;0.45;0.25;;;;;;;;;;5089426;28;20449;-69
2022/02/06 11:20:02;;;;;;;0.60;0.50;;;;;;;;;;5090854;28;20084;-69
2022/02/06 11:22:28;;;;;;;0.77;0.40;;;;;;;;;;5090737;28;20031;-69
2022/02/06 11:24:54;;;;;;;0.50;0.50;;;;;;;;;;5090659;28;20477;-69
2022/02/06 11:27:20;;;;;;;0.45;0.40;;;;;;;;;;5089975;28;20463;-69
2022/02/06 11:29:47;;;;;;;0.70;0.50;;;;;;;;;;5091933;28;20052;-69
2022/02/06 11:32:14;;;;;;;0.30;0.30;;;;;;;;;;5088472;28;20605;-69
2022/02/06 11:34:44;;;;;;;2.97;0.70;;;;;;;;;;5088731;28;20062;-69
2022/02/06 11:45:55;;;;;;;1.52;0.57;;;;;;;;;;5090429;28;20035;-69
2022/02/06 11:48:21;;;;;;;0.82;0.55;;;;;;;;;;5090455;28;20022;-69
2022/02/06 11:50:50;;;;;;;0.70;0.50;;;;;;;;;;5090972;28;20070;-69
2022/02/06 11:53:16;;;;;;;;;;;;;;;;;;5094017;28;20026;-69
2022/02/06 11:55:49;;;;;;;0.50;0.40;;;;;;;;;;5089709;28;20038;-69
2022/02/06 11:58:44;;;;;;;0.63;0.50;;;;;;;;;;5090191;28;20016;-70
2022/02/06 12:01:10;;;;;;;1.10;0.47;;;;;;;;;;5080518;28;20046;-69
2022/02/06 12:03:52;;;;;;;1.17;0.70;;;;;;;;;;5089985;28;20099;-69
2022/02/06 12:06:19;;;;;;;0.85;0.50;;;;;;;;;;5089776;28;20028;-69
2022/02/06 12:09:05;;;;;;;0.70;0.50;;;;;;;;;;5090960;28;23263;-69
2022/02/06 12:11:35;;;;;;;0.85;0.60;;;;;;;;;;5093724;28;20089;-68
2022/02/06 12:14:23;;;;;;;0.60;0.50;;;;;;;;;;5091057;28;20510;-68
2022/02/06 12:17:08;;;;;;;0.50;0.40;;;;;;;;;;5089792;28;20410;-68
2022/02/06 12:19:34;;;;;;;0.93;0.55;;;;;;;;;;5090517;28;20028;-68
2022/02/06 12:22:19;;;;;;;0.82;0.40;;;;;;;;;;5089179;28;20036;-69
2022/02/06 12:24:45;;;;;;;2.22;0.60;;;;;;;;;;5089259;28;20028;-69
2022/02/06 12:27:40;;;;;;;1.23;0.65;;;;;;;;;;5089493;28;20031;-69
2022/02/06 12:30:08;;;;;;;0.80;0.55;;;;;;;;;;5065855;28;20033;-69
2022/02/06 12:32:35;;;;;;;1.38;0.50;;;;;;;;;;5091514;28;20538;-68
2022/02/06 12:37:46;;;;;;;1.27;0.60;;;;;;;;;;5089062;28;20051;-69
2022/02/06 12:40:16;;;;;;;3.25;1.20;;;;;;;;;;5089095;28;20551;-68
2022/02/06 12:42:44;;;;;;;3.13;1.27;;;;;;;;;;5089098;28;20028;-69
2022/02/06 12:45:30;;;;;;;4.38;2.70;;;;;;;;;;5088893;28;20512;-68
2022/02/06 12:48:00;;;;;;;10.02;5.00;;;;;;;;;;5073139;28;20044;-68
2022/02/06 12:50:26;;;;;;;13.00;7.05;;;;;;;;;;5091836;28;20030;-68
2022/02/06 12:52:52;;;;;;;2.13;1.10;;;;;;;;;;5089092;28;20032;-68
2022/02/06 12:55:19;;;;;;;3.05;1.40;;;;;;;;;;5088472;28;20047;-68
2022/02/06 12:57:50;;;;;;;19.65;17.02;;;;;;;;;;5088774;28;20031;-69
2022/02/06 13:00:31;;;;;;;3.17;1.30;;;;;;;;;;5088930;28;20097;-69
2022/02/06 13:03:18;;;;;;;1.60;0.90;;;;;;;;;;5072576;28;20035;-69
2022/02/06 13:06:02;;;;;;;4.88;2.35;;;;;;;;;;5090256;28;20531;-69
2022/02/06 13:08:29;;;;;;;2.55;1.30;;;;;;;;;;5087909;28;20097;-69
2022/02/06 13:11:05;;;;;;;2.17;1.08;;;;;;;;;;5089027;28;20024;-69
2022/02/06 13:13:41;;;;;;;1.92;1.00;;;;;;;;;;5088470;28;20040;-66
2022/02/06 13:19:15;;;;;;;1.88;0.82;;;;;;;;;;5086930;28;20043;-68
2022/02/06 13:24:24;;;;;;;2.75;1.40;;;;;;;;;;5088252;28;20123;-68
2022/02/06 13:29:40;;;;;;;5.32;2.15;;;;;;;;;;5090423;28;20024;-67
2022/02/06 13:32:24;;;;;;;7.15;2.78;;;;;;;;;;5089495;28;20020;-67
2022/02/06 13:35:09;;;;;;;5.32;2.60;;;;;;;;;;5088292;28;20506;-67
2022/02/06 13:37:44;;;;;;;5.22;2.80;;;;;;;;;;5088877;28;20483;-69
2022/02/06 13:40:15;;;;;;;8.82;3.90;;;;;;;;;;5088093;28;20050;-67
2022/02/06 13:42:54;;;;;;;7.20;3.42;;;;;;;;;;5087417;28;20437;-68
2022/02/06 13:45:23;;;;;;;7.10;3.00;;;;;;;;;;5087875;28;20020;-67
2022/02/06 13:47:50;;;;;;;7.07;3.05;;;;;;;;;;5088152;28;20028;-68
2022/02/06 13:50:16;;;;;;;6.63;2.78;;;;;;;;;;5085265;28;20020;-67
2022/02/06 13:52:45;;;;;;;7.72;2.83;;;;;;;;;;5086825;28;20057;-67
2022/02/06 13:55:11;;;;;;;;;;;;;;;;;;5087800;28;20214;-67
2022/02/06 13:57:37;;;;;;;6.88;3.40;;;;;;;;;;5087648;28;19918;-67
2022/02/06 14:00:14;;;;;;;7.38;3.35;;;;;;;;;;5087111;28;20108;-68
2022/02/06 14:02:52;;;;;;;8.13;3.92;;;;;;;;;;5089635;28;20480;-67
2022/02/06 14:05:19;;;;;;;;;;;;;;;;;;5091361;28;20028;-66
2022/02/06 14:08:00;;;;;;;8.50;3.97;;;;;;;;;;5086561;28;20366;-66
2022/02/06 14:10:30;;;;;;;7.53;3.55;;;;;;;;;;5087049;28;20430;-67
2022/02/06 14:12:57;;;;;;;7.88;3.38;;;;;;;;;;5087395;28;20470;-69
2022/02/06 14:15:24;;;;;;;7.32;3.17;;;;;;;;;;5087305;28;20106;-69
2022/02/06 14:17:53;;;;;;;7.83;3.73;;;;;;;;;;5088421;28;20029;-68
2022/02/06 14:20:26;;;;;;;8.35;3.92;;;;;;;;;;5090220;28;20263;-67
2022/02/06 14:22:53;;;;;;;8.77;3.55;;;;;;;;;;5089022;28;20430;-67
2022/02/06 14:25:29;;;;;;;9.00;3.67;;;;;;;;;;5087312;28;20080;-67
2022/02/06 14:27:56;;;;;;;7.82;3.85;;;;;;;;;;5088631;28;20090;-67
2022/02/06 14:30:29;;;;;;;9.77;4.82;;;;;;;;;;5085827;28;20024;-67
2022/02/06 14:33:00;;;;;;;11.43;5.30;;;;;;;;;;5071514;28;20044;-67
2022/02/06 14:35:46;;;;;;;12.45;5.97;;;;;;;;;;5086211;28;20016;-67
2022/02/06 14:38:21;;;;;;;12.93;6.30;;;;;;;;;;5089577;28;20095;-68
2022/02/06 14:41:06;;;;;;;15.13;6.68;;;;;;;;;;5087041;28;20028;-68
2022/02/06 14:43:36;;;;;;;13.48;6.45;;;;;;;;;;5086672;28;20122;-67
2022/02/06 14:46:02;;;;;;;17.45;8.15;;;;;;;;;;5086754;28;20357;-67
2022/02/06 14:48:28;;;;;;;18.70;9.32;;;;;;;;;;5087911;28;20031;-67
2022/02/06 14:50:55;;;;;;;16.15;8.93;;;;;;;;;;5087211;28;20505;-67
2022/02/06 14:53:21;;;;;;;19.98;9.00;;;;;;;;;;5090463;28;20012;-67
2022/02/06 14:55:49;;;;;;;15.98;9.13;;;;;;;;;;5086413;28;20020;-68
2022/02/06 14:58:15;;;;;;;20.98;9.35;;;;;;;;;;5086722;28;20036;-67
2022/02/06 15:00:42;;;;;;;17.50;8.68;;;;;;;;;;5086649;28;20099;-67
2022/02/06 15:03:08;;;;;;;17.65;9.43;;;;;;;;;;5086157;28;20032;-67
2022/02/06 15:05:35;;;;;;;18.42;8.95;;;;;;;;;;5089251;28;20070;-67
2022/02/06 15:08:01;;;;;;;18.67;9.45;;;;;;;;;;5087924;28;20027;-67
2022/02/06 15:10:27;;;;;;;18.33;8.40;;;;;;;;;;5086471;28;20028;-67
2022/02/06 15:12:53;;;;;;;16.10;8.00;;;;;;;;;;5086271;28;20042;-67
2022/02/06 15:15:20;;;;;;;19.10;9.07;;;;;;;;;;5086477;28;20020;-67
2022/02/06 15:17:49;;;;;;;19.10;8.82;;;;;;;;;;5088033;28;20039;-68
2022/02/06 15:20:15;;;;;;;16.92;8.82;;;;;;;;;;5089388;28;20024;-68
2022/02/06 15:22:41;;;;;;;15.05;8.73;;;;;;;;;;5086080;28;20356;-67
2022/02/06 15:25:07;;;;;;;16.38;8.27;;;;;;;;;;5086063;28;20036;-67
2022/02/06 15:27:33;;;;;;;15.68;8.15;;;;;;;;;;5086140;28;20067;-67
2022/02/06 15:29:59;;;;;;;18.67;8.73;;;;;;;;;;5087013;28;20236;-67
2022/02/06 15:32:26;;;;;;;22.08;9.18;;;;;;;;;;5089979;28;20031;-67
2022/02/06 15:34:52;;;;;;;18.73;8.60;;;;;;;;;;5088422;28;20077;-67
2022/02/06 15:37:18;;;;;;;24.52;8.00;;;;;;;;;;5086555;28;20039;-66
2022/02/06 15:39:46;;;;;;;15.95;8.20;;;;;;;;;;5086317;28;20078;-67
2022/02/06 15:42:14;;;;;;;18.48;8.18;;;;;;;;;;5088588;28;20066;-67
2022/02/06 15:44:41;;;;;;;15.52;7.93;;;;;;;;;;5092512;28;20027;-67
2022/02/06 15:47:07;;;;;;;15.98;8.35;;;;;;;;;;5092158;28;20305;-67
2022/02/06 15:49:34;;;;;;;18.70;8.30;;;;;;;;;;5090388;28;20070;-67
2022/02/06 15:52:01;;;;;;;20.30;8.93;;;;;;;;;;5089908;28;20028;-66
2022/02/06 15:54:27;;;;;;;18.40;8.70;;;;;;;;;;5089873;28;20028;-66
2022/02/06 15:56:53;;;;;;;21.10;9.60;;;;;;;;;;5090191;28;20105;-66
2022/02/06 15:59:19;;;;;;;19.50;10.02;;;;;;;;;;5093339;28;20439;-67
2022/02/06 16:01:48;;;;;;;19.60;9.32;;;;;;;;;;5089653;28;20467;-67
2022/02/06 16:04:14;;;;;;;20.42;10.02;;;;;;;;;;5090012;28;20043;-66
2022/02/06 16:06:40;;;;;;;21.00;10.20;;;;;;;;;;5089166;28;20410;-67
2022/02/06 16:09:07;;;;;;;20.45;10.18;;;;;;;;;;5089312;28;20021;-68
2022/02/06 16:11:33;;;;;;;21.95;10.68;;;;;;;;;;5092122;28;20028;-67
2022/02/06 16:14:00;;;;;;;23.23;10.95;;;;;;;;;;5092343;28;20036;-69
2022/02/06 16:16:27;;;;;;;19.80;10.52;;;;;;;;;;5089541;28;20040;-68
2022/02/06 16:18:53;;;;;;;23.63;12.13;;;;;;;;;;5089295;28;20016;-67
2022/02/06 16:21:19;;;;;;;25.45;11.43;;;;;;;;;;5089215;28;20020;-67
2022/02/06 16:23:45;;;;;;;23.88;11.80;;;;;;;;;;5090711;28;20032;-67
2022/02/06 16:26:11;;;;;;;22.27;11.02;;;;;;;;;;5091224;28;20047;-66
2022/02/06 16:28:37;;;;;;;25.38;12.52;;;;;;;;;;5089039;28;20109;-66
2022/02/06 16:31:03;;;;;;;22.17;10.52;;;;;;;;;;5089346;28;20032;-67
2022/02/06 16:33:31;;;;;;;26.45;13.40;;;;;;;;;;5089130;28;20356;-66
2022/02/06 16:35:57;;;;;;;27.00;14.70;;;;;;;;;;5089227;28;20068;-67
2022/02/06 16:38:23;;;;;;;30.27;16.45;;;;;;;;;;5092018;28;20081;-67
2022/02/06 16:40:49;;;;;;;26.27;14.48;;;;;;;;;;5088998;28;20043;-67
2022/02/06 16:43:15;;;;;;;29.90;14.18;;;;;;;;;;5089087;28;20047;-66
2022/02/06 16:45:41;;;;;;;29.33;15.35;;;;;;;;;;5088268;28;20024;-67
2022/02/06 16:48:07;;;;;;;27.90;14.48;;;;;;;;;;5088799;28;20101;-67
2022/02/06 16:50:33;;;;;;;26.73;15.40;;;;;;;;;;5091337;28;20036;-67
2022/02/06 16:52:59;;;;;;;25.00;13.93;;;;;;;;;;5088862;28;20024;-67
2022/02/06 16:55:25;;;;;;;22.50;11.95;;;;;;;;;;5088243;28;20032;-67
2022/02/06 16:57:51;;;;;;;20.95;10.63;;;;;;;;;;5088947;28;20020;-67
2022/02/06 17:00:17;;;;;;;20.75;10.52;;;;;;;;;;5088650;28;20491;-68
2022/02/06 17:02:43;;;;;;;26.10;11.30;;;;;;;;;;5090330;28;20025;-68
2022/02/06 17:05:09;;;;;;;22.15;11.52;;;;;;;;;;5090723;28;20487;-68
2022/02/06 17:07:35;;;;;;;21.23;10.13;;;;;;;;;;5088400;28;20040;-68
2022/02/06 17:10:02;;;;;;;18.90;10.13;;;;;;;;;;5088009;28;20111;-68
2022/02/06 17:12:28;;;;;;;17.77;9.27;;;;;;;;;;5088401;28;20024;-67
2022/02/06 17:14:55;;;;;;;24.75;11.15;;;;;;;;;;5073129;28;20035;-68
2022/02/06 17:17:21;;;;;;;21.38;10.45;;;;;;;;;;5087225;28;20032;-68
2022/02/06 17:19:47;;;;;;;21.38;10.57;;;;;;;;;;5087859;28;20020;-67
2022/02/06 17:22:13;;;;;;;19.35;10.38;;;;;;;;;;5088045;28;20035;-67